Time;durP1;ratioP1;P1;durP2;ratioP2;P2;SDS_P1;SDS_P2;PMS_P1;PMS_P2;Temp;Humidity;BMP_temperature;BMP_pressure;BME280_temperature;BME280_humidity;BME280_pressure;Samples;Min_cycle;Max_cycle;Signal;HPM_P1;HPM_P2
2023/10/10 00:01:14;;;;;;;10.00;4.35;;;16.20;99.90;;;;;;5071580;28;20184;-85
2023/10/10 00:03:42;;;;;;;9.85;5.30;;;15.80;99.90;;;;;;5054758;28;20197;-85
2023/10/10 00:06:08;;;;;;;8.10;3.80;;;16.00;99.90;;;;;;5054867;28;20178;-85
2023/10/10 00:08:40;;;;;;;9.10;4.25;;;16.20;99.90;;;;;;5064916;28;20181;-86
2023/10/10 00:11:09;;;;;;;9.77;4.97;;;16.00;99.90;;;;;;5056731;28;20187;-85
2023/10/10 00:13:53;;;;;;;8.25;4.15;;;15.60;99.90;;;;;;5055126;28;20254;-85
2023/10/10 00:16:24;;;;;;;9.55;4.72;;;15.90;99.90;;;;;;5057199;28;20181;-85
2023/10/10 00:18:55;;;;;;;9.73;4.60;;;15.90;99.90;;;;;;5054829;28;20184;-85
2023/10/10 00:21:24;;;;;;;10.57;5.00;;;15.40;99.90;;;;;;5071605;28;20222;-86
2023/10/10 00:23:50;;;;;;;12.55;4.65;;;16.00;99.90;;;;;;5060346;28;20223;-85
2023/10/10 00:26:21;;;;;;;8.55;4.60;;;15.20;99.90;;;;;;5067006;28;20205;-85
2023/10/10 00:28:56;;;;;;;9.98;3.92;;;16.00;99.90;;;;;;5059737;28;20187;-84
2023/10/10 00:31:26;;;;;;;10.52;4.88;;;15.80;99.90;;;;;;5061734;28;20259;-86
2023/10/10 00:33:53;;;;;;;7.20;4.07;;;15.50;99.90;;;;;;5057236;28;20215;-86
2023/10/10 00:36:22;;;;;;;7.50;4.30;;;15.10;99.90;;;;;;5066155;28;20180;-85
2023/10/10 00:39:22;;;;;;;8.55;4.60;;;15.70;99.90;;;;;;5071079;28;20196;-86
2023/10/10 00:44:17;;;;;;;8.32;4.43;;;15.40;99.90;;;;;;5075158;28;20189;-85
2023/10/10 00:46:51;;;;;;;8.48;4.13;;;15.40;99.90;;;;;;5058740;28;20293;-86
2023/10/10 00:49:23;;;;;;;12.00;4.30;;;14.90;99.90;;;;;;5056745;28;20177;-86
2023/10/10 00:51:53;;;;;;;10.80;4.30;;;15.20;99.90;;;;;;5071223;28;20181;-86
2023/10/10 00:56:54;;;;;;;8.85;4.28;;;15.20;99.90;;;;;;5070771;28;20195;-86
2023/10/10 00:59:20;;;;;;;10.35;4.50;;;15.60;99.90;;;;;;5053291;28;20275;-86
2023/10/10 01:01:47;;;;;;;10.18;4.55;;;15.00;99.90;;;;;;5076844;28;20211;-86
2023/10/10 01:04:12;;;;;;;12.70;4.72;;;14.80;99.90;;;;;;5049779;28;20232;-85
2023/10/10 01:06:39;;;;;;;11.33;4.77;;;15.10;99.90;;;;;;5050818;28;20214;-86
2023/10/10 01:11:42;;;;;;;9.73;4.43;;;14.70;99.90;;;;;;5074609;28;20238;-85
2023/10/10 01:14:08;;;;;;;9.25;4.95;;;14.50;99.90;;;;;;5050008;28;20632;-85
2023/10/10 01:16:33;;;;;;;7.90;4.17;;;14.30;99.90;;;;;;5054895;28;20184;-85
2023/10/10 01:18:59;;;;;;;10.80;4.40;;;14.80;99.90;;;;;;5053043;28;20180;-85
2023/10/10 01:21:30;;;;;;;11.93;5.30;;;14.50;99.90;;;;;;5052501;28;20248;-86
2023/10/10 01:24:00;;;;;;;9.93;4.75;;;14.90;99.90;;;;;;5044949;28;20291;-86
2023/10/10 01:26:36;;;;;;;7.35;4.05;;;15.00;99.90;;;;;;5047765;28;20190;-86
2023/10/10 01:29:13;;;;;;;6.75;4.05;;;14.60;99.90;;;;;;5050386;28;20184;-86
2023/10/10 01:31:42;;;;;;;12.55;4.68;;;14.70;99.90;;;;;;5053389;28;20183;-86
2023/10/10 01:34:09;;;;;;;9.05;4.72;;;14.60;99.90;;;;;;5055738;28;20307;-86
2023/10/10 01:36:37;;;;;;;6.68;4.05;;;14.50;99.90;;;;;;5055748;28;20271;-86
2023/10/10 01:39:21;;;;;;;10.95;4.65;;;14.40;99.90;;;;;;5068772;28;20181;-86
2023/10/10 01:41:50;;;;;;;5.63;4.05;;;14.30;99.90;;;;;;5054495;28;20292;-86
2023/10/10 01:44:22;;;;;;;10.40;4.45;;;14.90;99.90;;;;;;5068455;28;20223;-86
2023/10/10 01:46:50;;;;;;;8.45;4.90;;;14.60;99.90;;;;;;5056079;28;20641;-86
2023/10/10 01:49:28;;;;;;;7.10;4.43;;;14.50;99.90;;;;;;5060714;28;20527;-85
2023/10/10 01:52:00;;;;;;;8.73;5.13;;;14.30;99.90;;;;;;5053462;28;20267;-84
2023/10/10 01:54:41;;;;;;;10.75;4.93;;;14.70;99.90;;;;;;5050540;28;20238;-86
2023/10/10 01:57:10;;;;;;;9.07;5.05;;;14.40;99.90;;;;;;5056648;28;20185;-86
2023/10/10 01:59:37;;;;;;;5.75;3.70;;;14.20;99.90;;;;;;5056424;28;20192;-85
2023/10/10 02:02:13;;;;;;;10.40;4.60;;;14.30;99.90;;;;;;5051059;28;20304;-85
2023/10/10 02:04:39;;;;;;;8.55;4.50;;;14.20;99.90;;;;;;5051500;28;20222;-85
2023/10/10 02:07:23;;;;;;;9.95;4.30;;;14.60;99.90;;;;;;5050209;28;20629;-86
2023/10/10 02:12:34;;;;;;;7.88;4.18;;;14.70;99.90;;;;;;5068421;28;20287;-85
2023/10/10 02:15:01;;;;;;;11.75;4.40;;;14.40;99.90;;;;;;5052579;28;20189;-85
2023/10/10 02:17:29;;;;;;;11.38;4.85;;;14.50;99.90;;;;;;5056301;28;20187;-85
2023/10/10 02:20:18;;;;;;;12.60;4.45;;;14.60;99.90;;;;;;5058632;28;20206;-85
2023/10/10 02:22:47;;;;;;;6.65;4.95;;;14.60;99.90;;;;;;5054152;28;20229;-85
2023/10/10 02:27:56;;;;;;;8.55;4.90;;;13.90;99.90;;;;;;5068307;28;20197;-85
2023/10/10 02:30:36;;;;;;;9.38;4.10;;;13.90;99.90;;;;;;5068411;28;20188;-85
2023/10/10 02:33:14;;;;;;;11.65;5.55;;;14.30;99.90;;;;;;5052165;28;20208;-85
2023/10/10 02:35:56;;;;;;;9.55;3.65;;;14.90;99.90;;;;;;5052988;28;20219;-85
2023/10/10 02:38:40;;;;;;;7.45;4.80;;;13.90;99.90;;;;;;5067644;28;20204;-86
2023/10/10 02:46:35;;;;;;;12.35;4.20;;;14.20;99.90;;;;;;5073708;28;20185;-85
2023/10/10 02:49:13;;;;;;;9.55;4.93;;;13.90;99.90;;;;;;5047803;28;20206;-86
2023/10/10 02:51:41;;;;;;;8.50;4.75;;;14.10;99.90;;;;;;5052963;28;20191;-85
2023/10/10 02:59:59;;;;;;;5.55;4.18;;;14.10;99.90;;;;;;5072557;28;20181;-86
2023/10/10 03:02:40;;;;;;;13.60;5.10;;;14.10;99.90;;;;;;5053720;28;20258;-86
2023/10/10 03:05:06;;;;;;;8.38;4.88;;;14.10;99.90;;;;;;5050140;28;20196;-86
2023/10/10 03:07:35;;;;;;;8.35;5.10;;;13.70;99.90;;;;;;5046093;28;20192;-86
2023/10/10 03:13:47;;;;;;;9.57;4.20;;;14.00;99.90;;;;;;4985295;28;20273;-86
2023/10/10 03:16:40;;;;;;;8.88;4.18;;;13.80;99.90;;;;;;5056390;28;20277;-86
2023/10/10 03:27:00;;;;;;;7.68;4.10;;;14.20;99.90;;;;;;5067165;28;20173;-87
2023/10/10 03:29:46;;;;;;;8.07;4.45;;;13.70;99.90;;;;;;5065311;28;20191;-88
2023/10/10 03:34:56;;;;;;;7.15;4.43;;;13.50;99.90;;;;;;5094203;28;20192;-87
2023/10/10 03:39:57;;;;;;;10.73;4.75;;;13.70;99.90;;;;;;5069022;28;20633;-87
2023/10/10 05:24:43;;;;;;;8.30;5.47;;;13.10;99.90;;;;;;5074082;28;20195;-90
2023/10/10 05:27:10;;;;;;;12.82;4.93;;;13.20;99.90;;;;;;5058474;28;20181;-85
2023/10/10 05:29:36;;;;;;;11.88;4.97;;;13.30;99.90;;;;;;5056524;28;20298;-85
2023/10/10 05:32:08;;;;;;;9.63;5.25;;;13.20;99.90;;;;;;5058359;28;20190;-84
2023/10/10 05:34:37;;;;;;;7.70;4.47;;;13.30;99.90;;;;;;5055447;28;20204;-86
2023/10/10 05:37:03;;;;;;;13.73;7.15;;;13.20;99.90;;;;;;5062095;28;20215;-86
2023/10/10 05:39:32;;;;;;;14.65;6.70;;;13.20;99.90;;;;;;5077156;28;20665;-85
2023/10/10 05:42:01;;;;;;;8.85;4.97;;;13.20;99.90;;;;;;5078482;28;20201;-85
2023/10/10 05:44:26;;;;;;;10.30;5.85;;;13.50;99.90;;;;;;5060707;28;20646;-85
2023/10/10 05:46:52;;;;;;;12.53;5.93;;;13.00;99.90;;;;;;5055007;28;20224;-85
2023/10/10 05:49:18;;;;;;;12.55;5.55;;;13.40;99.90;;;;;;5059999;28;20634;-84
2023/10/10 05:51:44;;;;;;;9.47;5.70;;;13.30;99.90;;;;;;5054161;28;20633;-85
2023/10/10 05:54:13;;;;;;;10.02;5.30;;;13.60;99.90;;;;;;5071063;28;20194;-85
2023/10/10 05:56:38;;;;;;;12.23;5.78;;;13.40;99.90;;;;;;5079914;28;20191;-86
2023/10/10 05:59:04;;;;;;;13.77;5.77;;;13.50;99.90;;;;;;5062972;28;20177;-92
2023/10/10 06:01:35;;;;;;;13.83;5.70;;;13.40;99.90;;;;;;5061396;28;20645;-89
2023/10/10 06:04:01;;;;;;;9.02;5.20;;;13.50;99.90;;;;;;5056792;28;20628;-90
2023/10/10 06:06:28;;;;;;;11.27;6.30;;;13.70;99.90;;;;;;5050014;28;20181;-87
2023/10/10 06:09:00;;;;;;;11.55;7.55;;;13.80;99.90;;;;;;5068552;28;20181;-86
2023/10/10 06:11:26;;;;;;;10.90;5.70;;;13.90;99.90;;;;;;5077269;28;20275;-86
2023/10/10 06:13:51;;;;;;;15.57;5.60;;;13.80;99.90;;;;;;5078858;28;20204;-86
2023/10/10 06:16:17;;;;;;;8.67;5.27;;;13.60;99.90;;;;;;5090057;28;20184;-86
2023/10/10 06:18:44;;;;;;;14.57;6.87;;;13.90;99.90;;;;;;5073802;28;20204;-88
2023/10/10 06:21:10;;;;;;;7.63;5.00;;;13.50;99.90;;;;;;5076876;28;20466;-88
2023/10/10 06:23:36;;;;;;;8.87;4.93;;;13.60;99.90;;;;;;5065241;28;20227;-88
2023/10/10 06:26:03;;;;;;;10.93;5.35;;;13.70;99.90;;;;;;5069093;28;20439;-88
2023/10/10 06:28:35;;;;;;;11.52;5.97;;;14.10;99.90;;;;;;5070314;28;20525;-87
2023/10/10 06:31:02;;;;;;;5.72;4.60;;;13.40;99.90;;;;;;5070206;28;20189;-87
2023/10/10 06:33:27;;;;;;;12.63;5.35;;;13.80;99.90;;;;;;5071483;28;20193;-86
2023/10/10 06:36:01;;;;;;;12.27;5.37;;;13.90;99.90;;;;;;5063922;28;20267;-86
2023/10/10 06:38:32;;;;;;;13.13;5.45;;;14.40;99.90;;;;;;5092070;28;20236;-88
2023/10/10 06:40:59;;;;;;;9.87;5.70;;;14.60;99.90;;;;;;5069560;28;20176;-86
2023/10/10 06:43:24;;;;;;;16.58;6.03;;;14.50;99.90;;;;;;5088425;28;20470;-89
2023/10/10 06:45:54;;;;;;;9.83;5.70;;;14.60;99.90;;;;;;5065729;28;20203;-88
2023/10/10 06:48:32;;;;;;;10.32;5.78;;;14.40;99.90;;;;;;5067935;28;20227;-87
2023/10/10 06:50:57;;;;;;;12.68;5.95;;;14.30;99.90;;;;;;5055105;28;20183;-87
2023/10/10 06:53:34;;;;;;;14.07;6.17;;;14.60;99.90;;;;;;5053036;28;20299;-88
2023/10/10 06:56:15;;;;;;;10.38;5.35;;;14.30;99.90;;;;;;5056959;28;20197;-87
2023/10/10 06:58:44;;;;;;;10.63;6.82;;;14.50;99.90;;;;;;5052955;28;20189;-88
2023/10/10 07:01:11;;;;;;;9.70;6.10;;;14.90;99.90;;;;;;5059541;28;21062;-89
2023/10/10 07:03:39;;;;;;;14.80;7.07;;;15.00;99.90;;;;;;5058685;28;20308;-89
2023/10/10 07:06:08;;;;;;;13.20;6.55;;;14.40;99.90;;;;;;5064089;28;20204;-89
2023/10/10 07:08:34;;;;;;;14.50;6.03;;;14.50;99.90;;;;;;5059544;28;20648;-89
2023/10/10 07:11:02;;;;;;;13.20;6.10;;;14.70;99.90;;;;;;5057689;28;20271;-88
2023/10/10 07:13:31;;;;;;;15.50;6.82;;;15.20;99.90;;;;;;5065945;28;20215;-87
2023/10/10 07:15:58;;;;;;;9.10;5.63;;;14.80;99.90;;;;;;5070790;28;20180;-88
2023/10/10 07:18:24;;;;;;;15.07;6.88;;;15.10;99.90;;;;;;5060075;28;20188;-88
2023/10/10 07:21:08;;;;;;;11.10;6.40;;;14.60;99.90;;;;;;5054479;28;20185;-87
2023/10/10 07:23:37;;;;;;;12.27;6.50;;;14.90;99.90;;;;;;5047220;28;20225;-87
2023/10/10 07:26:18;;;;;;;13.02;6.50;;;15.70;99.90;;;;;;5056702;28;20181;-88
2023/10/10 07:28:52;;;;;;;12.73;8.48;;;15.40;99.90;;;;;;5062424;28;20185;-88
2023/10/10 07:31:20;;;;;;;20.33;9.73;;;15.80;99.90;;;;;;5063045;28;20200;-88
2023/10/10 07:33:55;;;;;;;16.05;5.63;;;16.20;99.90;;;;;;5059314;28;20276;-87
2023/10/10 07:36:26;;;;;;;11.80;5.78;;;17.20;99.90;;;;;;5040433;28;20185;-86
2023/10/10 07:39:32;;;;;;;11.27;5.70;;;16.80;99.90;;;;;;5057239;28;20219;-86
2023/10/10 07:41:45;;;;;;;9.18;5.00;;;17.50;99.90;;;;;;5099248;28;20200;-87
2023/10/10 07:44:12;;;;;;;13.55;7.50;;;16.90;99.90;;;;;;5085287;28;20191;-87
2023/10/10 07:46:37;;;;;;;9.32;5.90;;;17.10;99.90;;;;;;5057278;28;20205;-87
2023/10/10 07:49:03;;;;;;;8.97;5.63;;;17.20;99.90;;;;;;5054403;28;20271;-87
2023/10/10 07:51:29;;;;;;;11.82;6.38;;;17.20;99.90;;;;;;5055940;28;20202;-88
2023/10/10 07:54:29;;;;;;;8.35;5.43;;;17.80;99.90;;;;;;5059117;28;20220;-87
2023/10/10 07:56:48;;;;;;;12.95;7.00;;;17.90;99.90;;;;;;5069368;28;20243;-88
2023/10/10 07:59:14;;;;;;;16.83;7.13;;;19.50;99.90;;;;;;5054964;28;20604;-88
2023/10/10 08:01:43;;;;;;;9.13;5.93;;;18.90;99.90;;;;;;5056132;28;20208;-86
2023/10/10 08:04:14;;;;;;;10.40;6.20;;;19.90;99.90;;;;;;5073144;28;20245;-86
2023/10/10 08:06:44;;;;;;;13.82;5.47;;;18.70;99.50;;;;;;5052207;28;20192;-87
2023/10/10 08:09:18;;;;;;;11.82;6.40;;;19.00;99.20;;;;;;5052428;28;20208;-87
2023/10/10 08:11:47;;;;;;;10.43;5.15;;;19.10;98.80;;;;;;5059325;28;21750;-87
2023/10/10 08:14:16;;;;;;;11.23;6.38;;;19.20;98.90;;;;;;5057603;28;20201;-85
2023/10/10 08:16:43;;;;;;;11.25;7.03;;;19.00;97.90;;;;;;5058484;28;20189;-86
2023/10/10 08:19:10;;;;;;;11.20;7.63;;;19.60;98.10;;;;;;5053132;28;20251;-87
2023/10/10 08:21:38;;;;;;;16.58;7.80;;;18.80;97.50;;;;;;5050099;28;20556;-87
2023/10/10 08:24:08;;;;;;;14.02;6.55;;;21.10;98.80;;;;;;5059654;28;20246;-86
2023/10/10 08:26:41;;;;;;;13.13;7.10;;;19.20;97.50;;;;;;5049018;28;20231;-85
2023/10/10 08:29:13;;;;;;;15.02;7.53;;;19.30;97.20;;;;;;5053378;28;20182;-83
2023/10/10 08:31:44;;;;;;;13.88;6.68;;;19.20;97.00;;;;;;5074956;28;20282;-85
2023/10/10 08:34:10;;;;;;;9.90;6.68;;;19.20;96.60;;;;;;5060202;28;20209;-87
2023/10/10 08:36:37;;;;;;;14.25;7.18;;;19.40;96.60;;;;;;5051962;28;20184;-88
2023/10/10 08:41:41;;;;;;;14.55;7.03;;;19.60;96.10;;;;;;5074706;28;20300;-87
2023/10/10 08:44:09;;;;;;;19.20;7.60;;;20.00;95.70;;;;;;5057322;28;20232;-88
2023/10/10 08:46:41;;;;;;;13.60;7.68;;;20.00;95.90;;;;;;5071446;28;20441;-87
2023/10/10 08:49:08;;;;;;;11.55;7.45;;;20.00;95.50;;;;;;5056295;28;20173;-87
2023/10/10 08:51:34;;;;;;;25.33;7.63;;;20.00;95.30;;;;;;5046961;28;20568;-87
2023/10/10 08:54:09;;;;;;;16.65;8.25;;;20.20;95.20;;;;;;5059985;28;20223;-86
2023/10/10 08:57:00;;;;;;;13.52;8.32;;;20.00;94.80;;;;;;5052141;28;20204;-87
2023/10/10 08:59:28;;;;;;;11.45;7.38;;;20.30;95.10;;;;;;5065694;28;20185;-86
2023/10/10 09:01:55;;;;;;;12.88;7.05;;;20.60;95.00;;;;;;5039673;28;20212;-85
2023/10/10 09:04:27;;;;;;;13.02;8.57;;;20.40;94.10;;;;;;5059643;28;20188;-84
2023/10/10 09:06:59;;;;;;;9.90;6.65;;;20.80;94.30;;;;;;5060173;28;20392;-84
2023/10/10 09:09:35;;;;;;;12.00;7.70;;;20.90;94.20;;;;;;5056329;28;20187;-86
2023/10/10 09:12:04;;;;;;;14.55;7.60;;;20.80;94.00;;;;;;5053781;28;20187;-85
2023/10/10 09:14:40;;;;;;;11.32;6.50;;;20.90;94.20;;;;;;5072018;28;20181;-85
2023/10/10 09:17:11;;;;;;;16.58;8.35;;;20.40;93.60;;;;;;5052171;28;20238;-88
2023/10/10 09:19:42;;;;;;;14.15;6.97;;;20.70;94.00;;;;;;5057385;28;20283;-90
2023/10/10 09:22:12;;;;;;;11.93;6.68;;;21.90;94.30;;;;;;5050035;28;20201;-89
2023/10/10 09:24:41;;;;;;;15.43;6.40;;;21.00;93.40;;;;;;5050913;28;20184;-90
2023/10/10 09:27:21;;;;;;;12.50;7.00;;;21.30;93.20;;;;;;5037598;28;20181;-89
2023/10/10 09:29:54;;;;;;;13.85;6.53;;;21.70;93.00;;;;;;5053432;28;20434;-89
2023/10/10 09:32:27;;;;;;;13.43;6.30;;;22.40;93.20;;;;;;5058806;28;20762;-89
2023/10/10 09:34:54;;;;;;;13.80;7.00;;;21.50;92.30;;;;;;5070822;28;20951;-89
2023/10/10 09:37:30;;;;;;;10.67;6.63;;;22.90;92.80;;;;;;5052696;28;20189;-89
2023/10/10 09:39:56;;;;;;;11.60;6.37;;;21.80;92.00;;;;;;5069525;28;20462;-89
2023/10/10 09:42:27;;;;;;;17.63;13.60;;;21.90;91.60;;;;;;5065086;28;20503;-89
2023/10/10 09:50:33;;;;;;;10.77;6.87;;;21.90;91.60;;;;;;5064012;28;20443;-91
2023/10/10 09:53:01;;;;;;;16.70;8.63;;;22.00;91.60;;;;;;5058745;28;20541;-91
2023/10/10 10:06:27;;;;;;;12.80;7.50;;;22.20;91.00;;;;;;5069507;28;20934;-89
2023/10/10 10:09:32;;;;;;;11.43;6.00;;;22.20;90.70;;;;;;5070421;28;20436;-84
2023/10/10 10:12:10;;;;;;;11.20;6.47;;;22.30;90.40;;;;;;5052739;28;20537;-84
2023/10/10 10:14:53;;;;;;;14.80;6.30;;;22.80;90.30;;;;;;5052925;28;20520;-86
2023/10/10 10:17:47;;;;;;;11.73;6.00;;;22.40;90.20;;;;;;5054718;28;20456;-87
2023/10/10 10:20:22;;;;;;;10.73;6.20;;;22.50;91.00;;;;;;5052480;28;20458;-82
2023/10/10 10:22:59;;;;;;;7.97;6.10;;;22.50;90.80;;;;;;5054803;28;20931;-84
2023/10/10 10:25:28;;;;;;;15.47;6.33;;;22.90;90.50;;;;;;5054477;28;20535;-87
2023/10/10 10:28:15;;;;;;;13.40;6.30;;;23.40;90.80;;;;;;5052831;28;20454;-88
2023/10/10 10:30:50;;;;;;;14.30;8.03;;;22.80;90.60;;;;;;5065820;28;20423;-88
2023/10/10 11:25:08;;;;;;;;;;;;;;;;;;;;;
2023/10/10 11:41:12;;;;;;;11.80;6.53;;;24.90;80.20;;;;;;5009550;28;20430;-88
2023/10/10 11:48:30;;;;;;;;;;;;;;;;;;;;;
2023/10/10 11:51:41;;;;;;;;;;;;;;;;;;;;;
2023/10/10 12:04:20;;;;;;;16.67;7.10;;;25.20;75.70;;;;;;4960005;28;20521;-89
2023/10/10 12:10:23;;;;;;;12.50;6.17;;;25.60;73.40;;;;;;4946483;28;20453;-88
2023/10/10 12:12:51;;;;;;;15.93;5.90;;;25.70;76.20;;;;;;5019915;28;20527;-86
2023/10/10 12:15:19;;;;;;;13.33;6.67;;;28.10;76.40;;;;;;5040878;28;21029;-83
2023/10/10 12:17:45;;;;;;;8.63;6.23;;;25.20;73.20;;;;;;5042991;28;20528;-86
2023/10/10 12:20:10;;;;;;;12.23;6.63;;;25.10;73.40;;;;;;5035706;28;20487;-86
2023/10/10 12:22:38;;;;;;;14.93;6.37;;;27.20;75.50;;;;;;5050097;28;21713;-84
2023/10/10 12:25:04;;;;;;;11.30;6.37;;;25.70;73.10;;;;;;5050319;28;20275;-83
2023/10/10 12:27:49;;;;;;;9.10;5.83;;;25.20;72.60;;;;;;5059306;28;20492;-85
2023/10/10 12:30:19;;;;;;;14.63;6.93;;;26.20;74.70;;;;;;5040255;28;20443;-84
2023/10/10 12:32:49;;;;;;;10.20;5.30;;;25.20;74.20;;;;;;5039890;28;20261;-86
2023/10/10 12:35:15;;;;;;;10.50;5.90;;;25.20;72.40;;;;;;5055599;28;21002;-86
2023/10/10 12:37:44;;;;;;;11.50;6.23;;;25.60;72.10;;;;;;5053928;28;20446;-85
2023/10/10 12:40:11;;;;;;;10.40;5.17;;;25.60;74.40;;;;;;5056139;28;20474;-87
2023/10/10 12:42:36;;;;;;;10.13;5.83;;;25.10;70.50;;;;;;5037384;28;20478;-86
2023/10/10 12:45:03;;;;;;;13.00;8.17;;;25.50;72.00;;;;;;5050459;28;20493;-84
2023/10/10 12:47:31;;;;;;;9.47;6.70;;;25.30;71.30;;;;;;5039744;28;20254;-88
2023/10/10 12:50:00;;;;;;;9.40;5.10;;;25.60;72.60;;;;;;5053451;28;20978;-88
2023/10/10 12:52:34;;;;;;;14.83;5.87;;;25.50;72.00;;;;;;5036418;28;20474;-84
2023/10/10 12:55:01;;;;;;;10.50;6.07;;;26.00;71.80;;;;;;5057438;28;20453;-86
2023/10/10 12:57:32;;;;;;;8.33;6.10;;;25.40;71.50;;;;;;5029425;28;20455;-88
2023/10/10 13:00:23;;;;;;;10.53;6.20;;;25.80;72.30;;;;;;5042252;28;20578;-89
2023/10/10 13:02:43;;;;;;;15.50;6.87;;;25.80;72.90;;;;;;5052356;28;20476;-84
2023/10/10 13:05:08;;;;;;;13.67;5.70;;;25.50;72.30;;;;;;5041527;28;20486;-84
2023/10/10 13:07:36;;;;;;;15.87;6.27;;;25.60;73.00;;;;;;5051675;28;20193;-85
2023/10/10 13:10:10;;;;;;;11.37;5.43;;;25.40;70.20;;;;;;5055075;28;20199;-85
2023/10/10 13:12:39;;;;;;;11.90;6.17;;;25.40;69.90;;;;;;5061578;28;20556;-90
2023/10/10 13:15:17;;;;;;;10.87;5.90;;;25.40;70.80;;;;;;5042962;28;20922;-88
2023/10/10 13:17:53;;;;;;;10.20;6.50;;;25.40;70.90;;;;;;5046800;28;21502;-84
2023/10/10 13:20:21;;;;;;;11.70;7.50;;;25.50;71.20;;;;;;5057732;28;20537;-88
2023/10/10 13:22:50;;;;;;;16.37;6.67;;;26.10;71.10;;;;;;5041334;28;20478;-87
2023/10/10 13:25:17;;;;;;;14.83;6.37;;;25.60;70.70;;;;;;5053841;28;20454;-86
2023/10/10 13:27:46;;;;;;;16.87;6.87;;;25.60;71.70;;;;;;5034233;28;20485;-85
2023/10/10 13:30:13;;;;;;;17.20;9.30;;;25.90;70.40;;;;;;5036740;28;20442;-85
2023/10/10 13:32:38;;;;;;;11.03;6.93;;;25.60;72.10;;;;;;5036852;28;21055;-85
2023/10/10 13:35:08;;;;;;;16.17;7.20;;;25.70;72.50;;;;;;5041170;28;20482;-85
2023/10/10 13:37:34;;;;;;;16.33;9.43;;;25.70;73.60;;;;;;5034466;28;20192;-86
2023/10/10 13:40:01;;;;;;;11.00;7.37;;;27.40;74.80;;;;;;5043338;28;20467;-88
2023/10/10 13:42:27;;;;;;;13.00;6.67;;;26.00;72.00;;;;;;5037333;28;20764;-87
2023/10/10 13:45:08;;;;;;;15.97;6.67;;;26.10;73.70;;;;;;5037720;28;20442;-86
2023/10/10 13:47:36;;;;;;;12.77;7.40;;;27.00;71.00;;;;;;5051997;28;20445;-87
2023/10/10 13:52:46;;;;;;;12.30;6.23;;;25.40;68.70;;;;;;5050705;28;20486;-86
2023/10/10 13:55:12;;;;;;;12.70;7.43;;;25.40;71.20;;;;;;5036057;28;20455;-87
2023/10/10 13:57:37;;;;;;;12.17;7.67;;;25.50;72.10;;;;;;5033224;28;20201;-87
2023/10/10 14:00:18;;;;;;;15.77;6.50;;;25.40;69.40;;;;;;5038754;28;20188;-86
2023/10/10 14:02:45;;;;;;;11.53;5.50;;;25.30;69.10;;;;;;5037864;28;20935;-86
2023/10/10 14:05:15;;;;;;;11.40;6.13;;;25.40;69.40;;;;;;5048720;28;20528;-86
2023/10/10 14:07:46;;;;;;;14.83;6.97;;;25.90;70.90;;;;;;5034251;28;20446;-86
2023/10/10 14:10:11;;;;;;;11.93;5.20;;;25.40;67.80;;;;;;5049457;28;20452;-86
2023/10/10 14:12:44;;;;;;;11.50;6.40;;;25.40;66.70;;;;;;5034464;28;20548;-86
2023/10/10 14:15:11;;;;;;;12.23;5.73;;;25.20;66.50;;;;;;5031131;28;20662;-86
2023/10/10 14:17:37;;;;;;;9.40;5.00;;;25.10;66.90;;;;;;5034057;28;20451;-85
2023/10/10 14:20:19;;;;;;;9.23;6.27;;;25.60;67.80;;;;;;5040493;28;20459;-86
2023/10/10 14:22:46;;;;;;;10.17;5.07;;;25.00;68.60;;;;;;5047973;28;20251;-86
2023/10/10 14:25:12;;;;;;;12.10;5.80;;;25.30;69.70;;;;;;5045144;28;20544;-86
2023/10/10 14:27:43;;;;;;;15.27;6.67;;;25.00;70.20;;;;;;5045684;28;20518;-86
2023/10/10 14:30:20;;;;;;;12.33;6.13;;;25.20;69.40;;;;;;5060887;28;20450;-86
2023/10/10 14:32:53;;;;;;;10.87;6.17;;;25.00;69.50;;;;;;5048214;28;20465;-85
2023/10/10 14:35:22;;;;;;;12.40;6.40;;;25.80;71.00;;;;;;5051076;28;20450;-84
2023/10/10 14:37:50;;;;;;;10.60;6.27;;;25.20;70.50;;;;;;5055611;28;20618;-85
2023/10/10 14:40:16;;;;;;;13.10;6.00;;;25.20;69.50;;;;;;5053269;28;20511;-85
2023/10/10 14:42:42;;;;;;;19.87;6.23;;;25.50;69.60;;;;;;5053096;28;20481;-83
2023/10/10 14:45:07;;;;;;;7.60;5.40;;;24.70;68.40;;;;;;5068932;28;20191;-83
2023/10/10 14:47:36;;;;;;;11.97;5.90;;;24.70;69.40;;;;;;5069245;28;20614;-83
2023/10/10 14:50:10;;;;;;;9.10;5.60;;;24.90;70.10;;;;;;5069495;28;20180;-84
2023/10/10 14:52:40;;;;;;;9.70;5.23;;;24.70;70.60;;;;;;5053007;28;20552;-85
2023/10/10 14:55:23;;;;;;;12.03;5.90;;;24.70;70.80;;;;;;5042639;28;20461;-85
2023/10/10 14:57:49;;;;;;;11.03;7.43;;;24.60;70.40;;;;;;5049480;28;20480;-86
2023/10/10 15:00:18;;;;;;;10.80;5.90;;;24.50;71.40;;;;;;5045740;28;20567;-87
2023/10/10 15:02:44;;;;;;;8.47;5.70;;;24.50;70.20;;;;;;5044599;28;20544;-85
2023/10/10 15:05:11;;;;;;;7.50;5.17;;;24.20;70.20;;;;;;5064994;28;20460;-85
2023/10/10 15:07:41;;;;;;;8.43;5.97;;;24.50;70.00;;;;;;5048969;28;20328;-86
2023/10/10 15:10:07;;;;;;;11.63;6.50;;;24.40;70.30;;;;;;5058968;28;20465;-87
2023/10/10 15:12:33;;;;;;;11.17;5.77;;;24.20;70.70;;;;;;5045405;28;20468;-84
2023/10/10 15:15:00;;;;;;;12.03;6.50;;;24.50;71.80;;;;;;5049226;28;20902;-84
2023/10/10 15:17:27;;;;;;;11.27;5.37;;;24.30;73.00;;;;;;5046343;28;20195;-85
2023/10/10 15:19:52;;;;;;;16.40;8.30;;;24.00;71.80;;;;;;5072144;23;20779;-85
2023/10/10 15:22:18;;;;;;;13.80;6.70;;;23.90;72.40;;;;;;5082093;28;20513;-86
2023/10/10 15:24:49;;;;;;;15.20;8.53;;;24.30;73.70;;;;;;5101661;28;20448;-87
2023/10/10 15:27:16;;;;;;;16.20;9.27;;;24.50;75.00;;;;;;5104265;28;20531;-86
2023/10/10 15:29:42;;;;;;;11.77;6.60;;;24.00;75.40;;;;;;5100218;28;20536;-87
2023/10/10 15:32:08;;;;;;;14.80;9.90;;;24.20;77.30;;;;;;5103262;28;20460;-87
2023/10/10 15:34:34;;;;;;;12.60;7.90;;;23.90;78.50;;;;;;5104474;28;20436;-85
2023/10/10 15:37:00;;;;;;;12.27;6.37;;;23.90;78.60;;;;;;5105756;28;20270;-86
2023/10/10 15:39:26;;;;;;;13.50;7.57;;;23.80;76.10;;;;;;5116802;28;20271;-85
2023/10/10 15:41:51;;;;;;;11.83;6.13;;;23.40;79.80;;;;;;5098820;28;20465;-88
2023/10/10 15:44:17;;;;;;;14.03;6.80;;;23.40;80.70;;;;;;5115333;28;20187;-86
2023/10/10 15:46:43;;;;;;;12.23;6.10;;;23.10;80.40;;;;;;5097851;28;20280;-86
2023/10/10 15:49:10;;;;;;;9.97;6.73;;;23.60;82.60;;;;;;5094801;28;20332;-87
2023/10/10 15:51:38;;;;;;;12.83;5.70;;;23.40;82.30;;;;;;5092697;28;20803;-87
2023/10/10 15:54:08;;;;;;;11.60;6.27;;;23.50;82.90;;;;;;5085289;28;21053;-86
2023/10/10 15:56:35;;;;;;;11.47;5.97;;;23.20;83.00;;;;;;5089649;28;20453;-87
2023/10/10 15:59:01;;;;;;;9.23;5.43;;;23.20;83.60;;;;;;5093231;28;20430;-87
2023/10/10 16:01:31;;;;;;;11.30;6.10;;;23.90;85.00;;;;;;5088857;28;20959;-88
2023/10/10 16:04:05;;;;;;;11.13;6.63;;;23.10;84.70;;;;;;5087656;28;20699;-86
2023/10/10 16:06:33;;;;;;;15.53;9.10;;;22.90;84.90;;;;;;5093481;28;20441;-87
2023/10/10 16:09:07;;;;;;;13.83;8.80;;;22.60;84.90;;;;;;5093132;28;20434;-86
2023/10/10 16:11:34;;;;;;;19.60;11.03;;;22.90;86.50;;;;;;5099506;28;20453;-87
2023/10/10 16:14:11;;;;;;;9.67;6.50;;;22.80;86.50;;;;;;5111089;27;20535;-86
2023/10/10 16:16:43;;;;;;;11.70;6.47;;;22.20;87.00;;;;;;5114460;28;20438;-86
2023/10/10 16:19:24;;;;;;;15.80;9.13;;;22.70;88.30;;;;;;5091761;28;20581;-88
2023/10/10 16:21:52;;;;;;;12.93;7.00;;;22.00;88.10;;;;;;5098382;28;20528;-86
2023/10/10 16:24:18;;;;;;;9.87;6.10;;;22.10;89.10;;;;;;5086117;28;20434;-87
2023/10/10 16:26:46;;;;;;;11.90;6.53;;;22.20;89.60;;;;;;5093479;28;20949;-86
2023/10/10 16:29:12;;;;;;;9.20;6.05;;;22.00;89.20;;;;;;5092479;28;20191;-88
2023/10/10 16:31:43;;;;;;;8.82;6.00;;;21.50;89.10;;;;;;5095087;28;20179;-86
2023/10/10 16:34:09;;;;;;;8.98;5.30;;;21.70;89.40;;;;;;5090127;28;20226;-87
2023/10/10 16:36:35;;;;;;;12.88;6.75;;;21.40;90.00;;;;;;5092796;28;20621;-86
2023/10/10 16:39:04;;;;;;;12.45;7.93;;;21.70;90.50;;;;;;5092689;28;20212;-86
2023/10/10 16:41:31;;;;;;;12.98;5.95;;;21.10;90.80;;;;;;5117951;28;20271;-86
2023/10/10 16:43:58;;;;;;;12.75;6.38;;;21.20;91.40;;;;;;5096415;28;20211;-86
2023/10/10 16:46:25;;;;;;;11.40;7.30;;;21.20;91.70;;;;;;5095342;28;20282;-87
2023/10/10 16:48:51;;;;;;;12.38;6.53;;;20.80;91.70;;;;;;5091620;28;20175;-87
2023/10/10 16:51:16;;;;;;;10.45;6.63;;;21.10;92.30;;;;;;5091714;28;20186;-88
2023/10/10 16:53:43;;;;;;;12.63;7.67;;;20.40;92.60;;;;;;5108969;28;20254;-86
2023/10/10 16:56:10;;;;;;;15.85;8.23;;;20.70;93.30;;;;;;5089518;28;20591;-86
2023/10/10 16:58:39;;;;;;;14.57;7.97;;;20.80;94.10;;;;;;5088666;28;20179;-86
2023/10/10 17:01:20;;;;;;;16.73;6.75;;;20.50;94.10;;;;;;5089751;28;20270;-86
2023/10/10 17:03:49;;;;;;;12.90;7.60;;;20.60;94.00;;;;;;5088094;28;20211;-86
2023/10/10 17:06:22;;;;;;;13.68;7.30;;;20.00;93.90;;;;;;5089166;28;20186;-87
2023/10/10 17:08:54;;;;;;;15.45;9.73;;;20.30;94.20;;;;;;5091427;28;20172;-87